Petone, New Zealand
Current Conditions -  °F | °C
As of 5:30 PM on Tuesday 27 Jan 2015 (Local Time) from NZWN Reporting Station
Clear Clear  
Wind Chill: 75°   Ceiling: Unl
Heat Index: 75°   Visibility: 6mi
Dew Point: 55°   Wind: 12mph
Humidity: 50%   Direction: 60°ENE
Pressure: 29.85"   Gusts: NA
Location:  41.23°S, 174.88°E
Report Text: NZWN 270530Z AUTO 06010KT 9999 NCD 24/13 Q1011 BECMG 20008KT
Loading
Personal Weather Stations






























Interactive Weather Map New forecast layout! Learn more

10-Day Weather Forecast

Advertisements
Track Severe Weather on mobile